createdAt,value
2019-04-14T00:02:25.771Z,3.80
2019-04-14T00:04:57.205Z,3.70
2019-04-14T00:07:27.648Z,3.70
2019-04-14T00:09:58.512Z,3.70
2019-04-14T00:12:27.905Z,3.70
2019-04-14T00:14:57.574Z,3.60
2019-04-14T00:17:26.970Z,3.70
2019-04-14T00:19:56.681Z,3.60
2019-04-14T00:22:28.056Z,3.50
2019-04-14T00:24:57.525Z,3.60
2019-04-14T00:27:28.112Z,3.60
2019-04-14T00:29:57.509Z,3.50
2019-04-14T00:32:29.004Z,3.50
2019-04-14T00:35:06.114Z,3.50
2019-04-14T00:37:42.754Z,3.50
2019-04-14T00:40:14.966Z,3.50
2019-04-14T00:42:47.277Z,3.50
2019-04-14T00:45:37.025Z,3.40
2019-04-14T00:48:07.900Z,3.40
2019-04-14T00:50:34.268Z,3.40
2019-04-14T00:53:03.737Z,3.40
2019-04-14T00:55:33.550Z,3.40
2019-04-14T00:58:03.841Z,3.40
2019-04-14T01:00:34.181Z,3.40
2019-04-14T01:03:04.687Z,3.40
2019-04-14T01:05:34.881Z,3.30
2019-04-14T01:08:05.466Z,3.40
2019-04-14T01:10:34.874Z,3.40
2019-04-14T01:13:05.810Z,3.40
2019-04-14T01:15:50.120Z,3.40
2019-04-14T01:18:07.797Z,3.40
2019-04-14T01:20:36.520Z,3.40
2019-04-14T01:23:06.355Z,3.40
2019-04-14T01:25:36.807Z,3.30
2019-04-14T01:28:06.810Z,3.30
2019-04-14T01:30:37.210Z,3.30
2019-04-14T01:33:07.629Z,3.40
2019-04-14T01:35:37.907Z,3.40
2019-04-14T03:08:25.844Z,3.20
2019-04-14T03:10:55.728Z,3.20
2019-04-14T03:13:29.311Z,3.20
2019-04-14T03:18:47.184Z,3.20
2019-04-14T03:21:28.019Z,3.20
2019-04-14T03:23:51.905Z,3.20
2019-04-14T03:26:19.796Z,3.20
2019-04-14T03:28:51.596Z,3.20
2019-04-14T03:39:17.587Z,3.30
2019-04-14T03:41:29.761Z,3.30
2019-04-14T03:44:03.342Z,3.30
2019-04-14T03:46:41.665Z,3.30
2019-04-14T03:49:10.014Z,3.30
2019-04-14T03:54:15.654Z,3.20
2019-04-14T03:56:51.365Z,3.30
2019-04-14T03:59:21.910Z,3.20
2019-04-14T04:01:52.294Z,3.20
2019-04-14T04:04:22.767Z,3.20
2019-04-14T04:06:53.172Z,3.20
2019-04-14T04:09:25.707Z,3.20
2019-04-14T04:11:56.225Z,3.20
2019-04-14T04:14:26.946Z,3.20
2019-04-14T04:17:01.464Z,3.20
2019-04-14T04:19:42.619Z,3.20
2019-04-14T04:22:32.494Z,3.20
2019-04-14T04:25:03.612Z,3.20
2019-04-14T04:27:50.501Z,3.30
2019-04-14T04:30:21.545Z,3.30
2019-04-14T04:32:55.813Z,3.30
2019-04-14T04:35:28.136Z,3.30
2019-04-14T04:38:07.869Z,3.30
2019-04-14T04:40:37.582Z,3.30
2019-04-14T04:43:07.970Z,3.30
2019-04-14T04:45:37.359Z,3.30
2019-04-14T04:48:06.748Z,3.40
2019-04-14T04:50:36.830Z,3.30
2019-04-14T04:53:06.977Z,3.30
2019-04-14T04:55:37.348Z,3.40
2019-04-14T04:58:07.790Z,3.30
2019-04-14T05:00:37.386Z,3.30
2019-04-14T05:03:07.709Z,3.40
2019-04-14T05:06:13.928Z,3.40
2019-04-14T05:08:48.056Z,3.30
2019-04-14T05:11:21.577Z,3.30
2019-04-14T05:13:51.858Z,3.30
2019-04-14T05:16:21.415Z,3.30
2019-04-14T05:18:50.981Z,3.30
2019-04-14T05:21:21.490Z,3.20
2019-04-14T05:23:51.680Z,3.20
2019-04-14T05:26:22.070Z,3.30
2019-04-14T05:28:52.671Z,3.20
2019-04-14T05:31:22.870Z,3.20
2019-04-14T05:33:53.335Z,3.30
2019-04-14T05:36:23.759Z,3.30
2019-04-14T05:38:54.077Z,3.30
2019-04-14T05:41:24.444Z,3.30
2019-04-14T05:44:31.823Z,3.30
2019-04-14T05:47:02.307Z,3.30
2019-04-14T05:49:40.961Z,3.30
2019-04-14T05:52:03.390Z,3.30
2019-04-14T05:54:33.958Z,3.40
2019-04-14T05:57:04.426Z,3.30
2019-04-14T05:59:33.903Z,3.30
2019-04-14T06:02:03.207Z,3.30
2019-04-14T06:04:33.178Z,3.20
2019-04-14T06:07:02.637Z,3.20
2019-04-14T06:12:21.444Z,3.10
2019-04-14T06:14:50.772Z,3.00
2019-04-14T06:17:20.088Z,3.00
2019-04-14T06:19:49.425Z,3.10
2019-04-14T06:22:18.751Z,3.00
2019-04-14T06:24:48.102Z,3.00
2019-04-14T06:27:17.433Z,3.00
2019-04-14T06:29:48.305Z,3.10
2019-04-14T06:32:31.801Z,3.00
2019-04-14T06:35:19.081Z,3.10
2019-04-14T06:38:05.967Z,3.20
2019-04-14T06:40:37.135Z,3.20
2019-04-14T06:43:06.469Z,3.20
2019-04-14T06:45:36.841Z,3.30
2019-04-14T06:48:06.179Z,3.30
2019-04-14T06:50:35.483Z,3.30
2019-04-14T06:53:05.377Z,3.40
2019-04-14T06:55:34.675Z,3.40
2019-04-14T06:58:04.072Z,3.60
2019-04-14T07:00:33.451Z,3.70
2019-04-14T07:03:02.855Z,3.80
2019-04-14T07:05:32.191Z,3.80
2019-04-14T07:08:01.522Z,3.80
2019-04-14T07:10:30.859Z,3.90
2019-04-14T07:13:00.165Z,3.80
2019-04-14T07:15:29.496Z,3.70
2019-04-14T07:17:59.868Z,3.70
2019-04-14T07:20:29.212Z,3.70
2019-04-14T07:22:58.516Z,3.70
2019-04-14T07:25:27.844Z,3.70
2019-04-14T07:27:57.173Z,3.70
2019-04-14T07:30:44.558Z,3.70
2019-04-14T07:33:30.458Z,3.70
2019-04-14T07:36:10.249Z,3.70
2019-04-14T07:38:42.329Z,3.70
2019-04-14T07:41:13.368Z,3.90
2019-04-14T07:43:47.135Z,4.10
2019-04-14T07:46:34.634Z,4.20
2019-04-14T07:49:05.607Z,4.40
2019-04-14T07:51:51.621Z,4.60
2019-04-14T07:54:25.281Z,4.80
2019-04-14T07:56:59.155Z,5.00
2019-04-14T07:59:30.136Z,5.00
2019-04-14T08:02:04.239Z,5.00
2019-04-14T08:04:35.216Z,5.00
2019-04-14T08:07:04.648Z,4.90
2019-04-14T08:09:33.958Z,4.70
2019-04-14T08:12:03.291Z,4.80
2019-04-14T08:14:32.590Z,4.80
2019-04-14T08:17:01.923Z,4.80
2019-04-14T08:19:31.270Z,4.80
2019-04-14T08:22:00.650Z,4.80
2019-04-14T08:24:29.944Z,4.70
2019-04-14T08:26:59.284Z,4.70
2019-04-14T08:29:28.660Z,4.70
2019-04-14T08:31:58.006Z,4.70
2019-04-14T08:34:27.321Z,4.70
2019-04-14T08:36:56.737Z,4.80
2019-04-14T08:39:27.092Z,4.80
2019-04-14T08:41:58.073Z,4.80
2019-04-14T08:44:29.098Z,4.90
2019-04-14T08:47:02.781Z,5.00
2019-04-14T08:49:36.193Z,4.90
2019-04-14T08:52:12.638Z,5.10
2019-04-14T08:54:45.588Z,5.10
2019-04-14T08:57:32.808Z,5.20
2019-04-14T09:00:03.872Z,5.40
2019-04-14T09:02:42.330Z,5.70
2019-04-14T09:05:13.413Z,5.80
2019-04-14T09:07:44.445Z,6.10
2019-04-14T09:10:15.421Z,6.10
2019-04-14T09:12:46.392Z,6.10
2019-04-14T09:15:15.731Z,6.30
2019-04-14T09:17:45.205Z,6.40
2019-04-14T09:20:14.616Z,6.30
2019-04-14T09:22:43.906Z,6.30
2019-04-14T09:25:13.451Z,6.40
2019-04-14T09:27:42.750Z,6.30
2019-04-14T09:30:12.724Z,6.30
2019-04-14T09:32:42.026Z,6.20
2019-04-14T09:35:11.625Z,6.20
2019-04-14T09:37:40.965Z,6.30
2019-04-14T09:40:10.611Z,6.40
2019-04-14T09:42:39.951Z,6.50
2019-04-14T09:45:09.487Z,6.60
2019-04-14T09:47:38.993Z,6.80
2019-04-14T09:50:08.535Z,6.90
2019-04-14T09:52:37.960Z,7.00
2019-04-14T09:55:07.500Z,7.30
2019-04-14T09:57:36.912Z,7.30
2019-04-14T10:00:07.516Z,7.50
2019-04-14T10:02:36.981Z,7.70
2019-04-14T10:05:07.149Z,7.90
2019-04-14T10:07:36.820Z,7.90
2019-04-14T10:10:07.945Z,8.10
2019-04-14T10:12:37.399Z,8.00
2019-04-14T10:15:07.272Z,8.40
2019-04-14T10:17:36.646Z,8.60
2019-04-14T10:20:06.639Z,9.10
2019-04-14T10:22:35.956Z,9.70
2019-04-14T10:25:06.633Z,10.00
2019-04-14T10:27:35.952Z,10.60
2019-04-14T10:30:07.233Z,10.60
2019-04-14T10:32:36.533Z,10.20
2019-04-14T10:35:07.114Z,10.20
2019-04-14T10:37:36.457Z,10.50
2019-04-14T10:40:06.607Z,10.80
2019-04-14T10:42:36.077Z,10.90
2019-04-14T10:45:07.727Z,11.00
2019-04-14T10:47:37.064Z,10.60
2019-04-14T10:50:06.812Z,10.30
2019-04-14T10:52:36.157Z,10.40
2019-04-14T10:55:07.347Z,10.20
2019-04-14T10:57:36.952Z,10.50
2019-04-14T11:00:09.469Z,10.90
2019-04-14T11:02:38.918Z,10.80
2019-04-14T11:05:08.400Z,10.70
2019-04-14T11:07:37.720Z,10.60
2019-04-14T11:10:08.549Z,10.50
2019-04-14T11:12:37.956Z,10.80
2019-04-14T11:15:08.699Z,11.00
2019-04-14T11:17:38.107Z,11.00
2019-04-14T11:20:08.271Z,11.30
2019-04-14T11:22:37.646Z,11.10
2019-04-14T11:25:07.226Z,10.70
2019-04-14T11:27:36.541Z,10.70
2019-04-14T11:30:09.547Z,10.60
2019-04-14T11:32:43.427Z,10.50
2019-04-14T11:35:16.531Z,10.50
2019-04-14T11:38:06.372Z,10.50
2019-04-14T11:40:56.826Z,10.80
2019-04-14T11:43:29.035Z,10.90
2019-04-14T11:45:58.591Z,11.10
2019-04-14T11:48:28.054Z,11.20
2019-04-14T11:50:57.396Z,11.10
2019-04-14T11:53:27.839Z,11.20
2019-04-14T11:55:57.173Z,11.20
2019-04-14T11:58:29.046Z,11.20
2019-04-14T12:01:17.541Z,11.30
2019-04-14T12:03:54.269Z,11.30
2019-04-14T12:06:41.172Z,11.40
2019-04-14T12:09:14.865Z,11.50
2019-04-14T12:11:44.181Z,11.30
2019-04-14T12:14:13.503Z,11.40
2019-04-14T12:16:42.837Z,11.50
2019-04-14T12:19:12.184Z,11.60
2019-04-14T12:21:41.600Z,11.80
2019-04-14T12:24:10.913Z,11.90
2019-04-14T12:26:40.429Z,11.90
2019-04-14T12:29:09.813Z,12.20
2019-04-14T12:31:39.817Z,12.40
2019-04-14T12:34:09.193Z,13.00
2019-04-14T12:36:38.794Z,13.20
2019-04-14T12:39:19.836Z,13.10
2019-04-14T12:41:54.796Z,13.00
2019-04-14T12:46:36.345Z,13.20
2019-04-14T12:49:15.949Z,12.90
2019-04-14T12:51:55.981Z,12.60
2019-04-14T12:54:27.011Z,12.20
2019-04-14T12:56:59.322Z,11.70
2019-04-14T12:59:28.731Z,11.30
2019-04-14T13:02:11.123Z,10.90
2019-04-14T13:04:39.974Z,10.70
2019-04-14T13:07:09.316Z,10.80
2019-04-14T13:09:38.793Z,10.80
2019-04-14T13:12:10.311Z,11.00
2019-04-14T13:14:39.131Z,11.40
2019-04-14T13:17:08.607Z,11.70
2019-04-14T13:19:37.984Z,12.00
2019-04-14T13:22:07.469Z,12.10
2019-04-14T13:24:36.873Z,12.40
2019-04-14T13:27:06.221Z,12.20
2019-04-14T13:29:35.597Z,12.10
2019-04-14T13:32:06.147Z,12.00
2019-04-14T13:34:34.796Z,11.80
2019-04-14T13:37:04.221Z,11.70
2019-04-14T13:39:33.608Z,11.60
2019-04-14T13:42:02.982Z,11.40
2019-04-14T13:44:32.592Z,11.50
2019-04-14T13:47:01.924Z,11.80
2019-04-14T13:49:31.223Z,12.00
2019-04-14T13:52:00.573Z,12.60
2019-04-14T13:54:29.961Z,13.10
2019-04-14T13:56:59.301Z,13.40
2019-04-14T13:59:28.635Z,13.30
2019-04-14T14:01:58.030Z,13.20
2019-04-14T14:04:27.811Z,12.90
2019-04-14T14:06:57.222Z,13.00
2019-04-14T14:09:26.554Z,13.00
2019-04-14T14:12:03.481Z,12.80
2019-04-14T14:14:34.422Z,12.90
2019-04-14T14:17:21.784Z,12.90
2019-04-14T14:19:58.455Z,13.10
2019-04-14T14:22:45.595Z,12.80
2019-04-14T14:25:16.652Z,12.80
2019-04-14T14:27:45.969Z,13.40
2019-04-14T14:30:17.013Z,14.10
2019-04-14T14:32:46.329Z,14.40
2019-04-14T14:35:15.653Z,14.50
2019-04-14T14:37:45.002Z,14.00
2019-04-14T14:40:14.664Z,13.70
2019-04-14T14:42:45.154Z,13.50
2019-04-14T14:45:25.269Z,13.70
2019-04-14T14:47:59.229Z,13.70
2019-04-14T14:50:31.178Z,14.10
2019-04-14T14:53:11.481Z,14.50
2019-04-14T14:55:31.660Z,14.30
2019-04-14T14:58:01.005Z,13.80
2019-04-14T15:00:31.968Z,13.70
2019-04-14T15:03:01.307Z,13.60
2019-04-14T15:05:30.703Z,13.60
2019-04-14T15:08:00.018Z,13.70
2019-04-14T15:10:29.408Z,13.50
2019-04-14T15:12:58.988Z,13.20
2019-04-14T15:15:28.367Z,13.00
2019-04-14T15:17:57.774Z,12.60
2019-04-14T15:20:27.155Z,12.30
2019-04-14T15:22:56.500Z,12.20
2019-04-14T15:25:25.904Z,12.10
2019-04-14T15:27:55.282Z,12.10
2019-04-14T15:30:24.785Z,12.00
2019-04-14T15:32:54.246Z,12.00
2019-04-14T15:35:23.624Z,12.00
2019-04-14T15:37:52.963Z,11.90
2019-04-14T15:40:22.393Z,11.70
2019-04-14T15:42:51.692Z,11.70
2019-04-14T15:45:21.098Z,11.80
2019-04-14T15:47:50.445Z,11.70
2019-04-14T15:50:19.744Z,11.70
2019-04-14T15:52:49.089Z,11.60
2019-04-14T15:55:19.222Z,11.40
2019-04-14T15:57:50.332Z,11.20
2019-04-14T16:00:27.214Z,11.00
2019-04-14T16:03:14.512Z,10.90
2019-04-14T16:05:45.473Z,10.90
2019-04-14T16:08:16.444Z,11.00
2019-04-14T16:11:02.422Z,11.00
2019-04-14T16:13:39.186Z,10.90
2019-04-14T16:16:10.176Z,10.90
2019-04-14T16:18:47.442Z,10.80
2019-04-14T16:21:19.108Z,10.80
2019-04-14T16:23:50.852Z,10.80
2019-04-14T16:26:21.255Z,10.80
2019-04-14T16:28:54.946Z,11.00
2019-04-14T16:31:42.160Z,11.00
2019-04-14T16:34:16.770Z,11.00
2019-04-14T16:36:47.887Z,10.90
2019-04-14T16:39:18.663Z,10.90
2019-04-14T16:41:48.118Z,10.70
2019-04-14T16:44:17.535Z,10.70
2019-04-14T16:46:48.081Z,10.70
2019-04-14T16:49:17.394Z,10.50
2019-04-14T16:51:48.379Z,10.50
2019-04-14T16:54:19.336Z,10.40
2019-04-14T16:56:56.032Z,10.30
2019-04-14T16:59:25.519Z,10.20
2019-04-14T17:01:54.822Z,10.10
2019-04-14T17:04:24.240Z,10.00
2019-04-14T17:06:53.674Z,9.90
2019-04-14T17:09:23.042Z,9.90
2019-04-14T17:11:52.990Z,9.80
2019-04-14T17:14:24.103Z,9.80
2019-04-14T17:17:13.462Z,9.70
2019-04-14T17:20:02.774Z,9.50
2019-04-14T17:22:52.906Z,9.40
2019-04-14T17:25:32.874Z,9.30
2019-04-14T17:28:03.827Z,9.20
2019-04-14T17:30:52.316Z,9.10
2019-04-14T17:33:23.300Z,9.20
2019-04-14T17:35:54.403Z,9.10
2019-04-14T17:38:37.547Z,9.00
2019-04-14T17:41:12.333Z,8.90
2019-04-14T17:43:49.167Z,8.80
2019-04-14T17:46:20.383Z,8.70
2019-04-14T17:49:06.878Z,8.60
2019-04-14T17:51:37.872Z,8.50
2019-04-14T17:54:11.850Z,8.40
2019-04-14T17:56:42.846Z,8.40
2019-04-14T17:59:19.853Z,8.20
2019-04-14T18:01:57.046Z,8.20
2019-04-14T18:04:33.966Z,8.10
2019-04-14T18:07:05.126Z,8.00
2019-04-14T18:09:42.558Z,8.00
2019-04-14T18:12:25.601Z,7.90
2019-04-14T18:15:11.979Z,7.80
2019-04-14T18:20:10.687Z,7.80
2019-04-14T18:22:40.121Z,7.60
2019-04-14T18:25:09.728Z,7.60
2019-04-14T18:27:43.683Z,7.50
2019-04-14T18:30:17.461Z,7.50
2019-04-14T18:32:54.698Z,7.40
2019-04-14T18:35:25.701Z,7.30
2019-04-14T18:37:56.649Z,7.30
2019-04-14T18:40:27.701Z,7.20
2019-04-14T18:43:10.961Z,7.10
2019-04-14T18:45:42.978Z,7.00
2019-04-14T18:48:20.538Z,7.00
2019-04-14T18:51:01.107Z,6.90
2019-04-14T18:53:48.225Z,6.80
2019-04-14T18:56:31.940Z,6.80
2019-04-14T18:59:06.392Z,6.70
2019-04-14T19:01:38.002Z,6.60
2019-04-14T19:04:08.912Z,6.60
2019-04-14T19:06:39.758Z,6.50
2019-04-14T19:09:09.141Z,6.50
2019-04-14T19:11:42.315Z,6.50
2019-04-14T19:14:14.224Z,6.40
2019-04-14T19:16:46.206Z,6.40
2019-04-14T19:19:18.134Z,6.40
2019-04-14T19:21:48.295Z,6.30
2019-04-14T19:24:18.889Z,6.20
2019-04-14T19:26:49.011Z,6.20
2019-04-14T19:29:19.013Z,6.00
2019-04-14T19:31:49.287Z,6.00
2019-04-14T19:34:19.767Z,5.90
2019-04-14T19:36:50.138Z,5.70
2019-04-14T19:39:20.420Z,5.60
2019-04-14T19:41:50.658Z,5.60
2019-04-14T19:44:20.700Z,5.60
2019-04-14T19:46:50.119Z,5.40
2019-04-14T19:49:19.449Z,5.50
2019-04-14T19:51:48.874Z,5.40
2019-04-14T19:54:18.652Z,5.40
2019-04-14T19:56:48.319Z,5.20
2019-04-14T19:59:17.769Z,5.00
2019-04-14T20:01:47.101Z,5.00
2019-04-14T20:04:16.418Z,4.80
2019-04-14T20:06:45.791Z,4.70
2019-04-14T20:09:15.194Z,4.70
2019-04-14T20:11:45.220Z,4.60
2019-04-14T20:14:14.553Z,4.60
2019-04-14T20:17:01.745Z,4.40
2019-04-14T20:19:35.867Z,4.40
2019-04-14T20:22:06.922Z,4.30
2019-04-14T20:24:37.952Z,4.30
2019-04-14T20:27:12.004Z,4.30
2019-04-14T20:29:47.153Z,4.20
2019-04-14T20:32:22.510Z,4.20
2019-04-14T20:34:51.844Z,4.10
2019-04-14T20:37:21.143Z,4.00
2019-04-14T20:39:50.609Z,3.90
2019-04-14T20:42:19.982Z,3.90
2019-04-14T20:44:49.308Z,4.00
2019-04-14T20:47:18.843Z,3.90
2019-04-14T20:49:48.176Z,3.90
2019-04-14T20:52:17.474Z,3.80
2019-04-14T20:54:46.885Z,3.70
2019-04-14T20:57:16.259Z,3.70
2019-04-14T20:59:45.691Z,3.60
2019-04-14T21:02:31.609Z,3.60
2019-04-14T21:05:18.821Z,3.40
2019-04-14T21:07:49.870Z,3.30
2019-04-14T21:10:33.235Z,3.40
2019-04-14T21:13:10.192Z,3.40
2019-04-14T21:15:41.232Z,3.40
2019-04-14T21:18:18.051Z,3.40
2019-04-14T21:20:49.036Z,3.30
2019-04-14T21:23:32.217Z,3.10
2019-04-14T21:26:06.180Z,3.00
2019-04-14T21:28:42.769Z,2.90
2019-04-14T21:31:13.753Z,2.70
2019-04-14T21:33:59.735Z,2.60
2019-04-14T21:36:30.702Z,2.60
2019-04-14T21:39:07.781Z,2.70
2019-04-14T21:41:39.103Z,2.80
2019-04-14T21:44:08.417Z,2.90
2019-04-14T21:46:37.725Z,2.90
2019-04-14T21:49:07.074Z,2.80
2019-04-14T21:51:54.499Z,2.80
2019-04-14T21:54:23.968Z,2.80
2019-04-14T21:56:54.931Z,2.80
2019-04-14T21:59:28.421Z,2.70
2019-04-14T22:02:16.761Z,2.50
2019-04-14T22:05:03.003Z,2.40
2019-04-14T22:07:34.045Z,2.40
2019-04-14T22:10:06.136Z,2.40
2019-04-14T22:12:35.646Z,2.50
2019-04-14T22:15:06.592Z,2.50
2019-04-14T22:17:35.990Z,2.50
2019-04-14T22:20:06.139Z,2.40
2019-04-14T22:22:35.480Z,2.10
2019-04-14T22:25:07.120Z,2.30
2019-04-14T22:27:37.479Z,2.20
2019-04-14T22:30:08.800Z,2.10
2019-04-14T22:32:38.138Z,2.00
2019-04-14T22:35:07.612Z,1.80
2019-04-14T22:37:36.923Z,1.90
2019-04-14T22:40:06.689Z,1.90
2019-04-14T22:42:35.988Z,1.90
2019-04-14T22:45:07.554Z,1.80
2019-04-14T22:47:36.853Z,1.70
2019-04-14T22:50:07.035Z,1.50
2019-04-14T22:52:36.403Z,1.60
2019-04-14T22:55:07.487Z,1.70
2019-04-14T22:57:36.772Z,1.80
2019-04-14T23:00:13.521Z,1.50
2019-04-14T23:03:00.965Z,1.50
2019-04-14T23:05:48.575Z,1.60
2019-04-14T23:08:35.944Z,1.60
2019-04-14T23:11:16.168Z,1.60
2019-04-14T23:14:03.889Z,1.60
2019-04-14T23:16:51.086Z,1.70
2019-04-14T23:19:27.808Z,1.70
2019-04-14T23:21:58.752Z,1.50
2019-04-14T23:24:32.746Z,1.60
2019-04-14T23:27:02.224Z,1.60
2019-04-14T23:29:31.549Z,1.70
2019-04-14T23:32:00.848Z,1.70
2019-04-14T23:34:30.192Z,1.60
2019-04-14T23:36:59.501Z,1.50
2019-04-14T23:39:28.824Z,1.40
2019-04-14T23:41:58.196Z,1.30
2019-04-14T23:44:28.592Z,1.30
2019-04-14T23:46:57.927Z,1.30
2019-04-14T23:49:27.257Z,1.30
2019-04-14T23:51:56.589Z,1.40
2019-04-14T23:54:25.886Z,1.50
2019-04-14T23:57:04.725Z,1.50
2019-04-14T23:59:26.252Z,1.40
